createdAt,value
2023-03-18T00:01:10.691Z,100.00
2023-03-18T00:03:37.742Z,100.00
2023-03-18T00:06:06.971Z,100.00
2023-03-18T00:08:34.125Z,100.00
2023-03-18T00:11:01.164Z,100.00
2023-03-18T00:13:27.927Z,100.00
2023-03-18T00:15:54.724Z,100.00
2023-03-18T00:18:21.657Z,100.00
2023-03-18T00:20:48.669Z,100.00
2023-03-18T00:23:15.484Z,100.00
2023-03-18T00:25:42.976Z,100.00
2023-03-18T00:28:09.685Z,100.00
2023-03-18T00:30:39.914Z,100.00
2023-03-18T00:33:07.123Z,100.00
2023-03-18T00:35:34.539Z,100.00
2023-03-18T00:38:03.979Z,100.00
2023-03-18T00:40:43.375Z,100.00
2023-03-18T00:43:12.653Z,100.00
2023-03-18T00:45:40.935Z,100.00
2023-03-18T00:48:08.984Z,100.00
2023-03-18T00:50:36.901Z,100.00
2023-03-18T00:53:04.003Z,100.00
2023-03-18T00:55:30.738Z,100.00
2023-03-18T00:57:57.986Z,100.00
2023-03-18T01:00:26.304Z,100.00
2023-03-18T01:02:53.912Z,100.00
2023-03-18T01:05:21.876Z,100.00
2023-03-18T01:07:49.351Z,100.00
2023-03-18T01:10:16.472Z,100.00
2023-03-18T01:12:46.651Z,100.00
2023-03-18T01:15:17.090Z,100.00
2023-03-18T01:17:45.533Z,100.00
2023-03-18T01:20:14.415Z,100.00
2023-03-18T01:22:42.201Z,100.00
2023-03-18T01:25:11.732Z,100.00
2023-03-18T01:27:39.427Z,100.00
2023-03-18T01:30:09.199Z,100.00
2023-03-18T01:32:36.648Z,100.00
2023-03-18T01:35:04.585Z,100.00
2023-03-18T01:37:31.554Z,100.00
2023-03-18T01:40:11.009Z,100.00
2023-03-18T01:42:38.266Z,100.00
2023-03-18T01:45:25.849Z,100.00
2023-03-18T01:47:57.318Z,100.00
2023-03-18T01:50:35.680Z,100.00
2023-03-18T01:53:06.980Z,100.00
2023-03-18T01:55:36.311Z,100.00
2023-03-18T01:58:10.163Z,100.00
2023-03-18T02:00:42.123Z,100.00
2023-03-18T02:03:09.114Z,100.00
2023-03-18T02:05:37.253Z,100.00
2023-03-18T02:08:04.470Z,100.00
2023-03-18T02:10:32.466Z,100.00
2023-03-18T02:13:06.841Z,100.00
2023-03-18T02:15:49.285Z,100.00
2023-03-18T02:18:25.386Z,100.00
2023-03-18T02:21:10.747Z,100.00
2023-03-18T02:23:52.572Z,100.00
2023-03-18T02:26:44.287Z,100.00
2023-03-18T02:29:17.284Z,100.00
2023-03-18T02:31:52.196Z,100.00
2023-03-18T02:34:25.653Z,100.00
2023-03-18T02:36:54.816Z,100.00
2023-03-18T02:39:22.559Z,100.00
2023-03-18T02:41:52.678Z,100.00
2023-03-18T02:44:21.283Z,100.00
2023-03-18T02:47:20.859Z,100.00
2023-03-18T02:49:47.641Z,100.00
2023-03-18T02:52:15.518Z,100.00
2023-03-18T02:54:42.666Z,100.00
2023-03-18T02:57:09.431Z,100.00
2023-03-18T02:59:38.901Z,100.00
2023-03-18T03:02:06.426Z,100.00
2023-03-18T03:04:33.216Z,100.00
2023-03-18T03:07:01.592Z,100.00
2023-03-18T03:09:36.409Z,100.00
2023-03-18T03:12:04.267Z,100.00
2023-03-18T03:14:32.179Z,100.00
2023-03-18T03:17:01.885Z,100.00
2023-03-18T03:19:28.666Z,100.00
2023-03-18T03:21:55.626Z,100.00
2023-03-18T03:24:25.759Z,100.00
2023-03-18T03:26:52.484Z,100.00
2023-03-18T03:29:19.217Z,100.00
2023-03-18T03:31:49.321Z,100.00
2023-03-18T03:34:16.070Z,100.00
2023-03-18T03:36:43.167Z,100.00
2023-03-18T03:39:10.713Z,100.00
2023-03-18T03:41:37.543Z,100.00
2023-03-18T03:44:04.807Z,100.00
2023-03-18T03:46:32.179Z,100.00
2023-03-18T03:49:00.495Z,100.00
2023-03-18T03:51:28.138Z,100.00
2023-03-18T03:53:55.172Z,100.00
2023-03-18T03:56:22.348Z,100.00
2023-03-18T03:58:49.194Z,100.00
2023-03-18T04:01:18.995Z,100.00
2023-03-18T04:03:47.498Z,100.00
2023-03-18T04:06:14.318Z,100.00
2023-03-18T04:08:48.099Z,100.00
2023-03-18T04:11:15.369Z,100.00
2023-03-18T04:13:42.745Z,100.00
2023-03-18T04:16:09.708Z,100.00
2023-03-18T04:18:36.545Z,100.00
2023-03-18T04:21:05.975Z,100.00
2023-03-18T04:23:39.901Z,100.00
2023-03-18T04:26:07.042Z,100.00
2023-03-18T04:28:34.485Z,100.00
2023-03-18T04:31:03.653Z,100.00
2023-03-18T04:33:30.668Z,100.00
2023-03-18T04:35:58.169Z,100.00
2023-03-18T04:38:25.923Z,100.00
2023-03-18T04:40:52.764Z,100.00
2023-03-18T04:43:20.022Z,100.00
2023-03-18T04:45:49.264Z,100.00
2023-03-18T04:48:16.809Z,100.00
2023-03-18T04:50:45.787Z,100.00
2023-03-18T04:53:18.366Z,100.00
2023-03-18T04:55:45.286Z,100.00
2023-03-18T04:58:14.271Z,100.00
2023-03-18T05:00:50.113Z,100.00
2023-03-18T05:03:28.960Z,100.00
2023-03-18T05:05:56.267Z,100.00
2023-03-18T05:08:31.940Z,100.00
2023-03-18T05:11:00.378Z,100.00
2023-03-18T05:13:27.547Z,100.00
2023-03-18T05:15:55.272Z,100.00
2023-03-18T05:18:22.669Z,100.00
2023-03-18T05:20:52.765Z,100.00
2023-03-18T05:23:21.746Z,100.00
2023-03-18T05:25:55.735Z,100.00
2023-03-18T05:28:25.318Z,100.00
2023-03-18T05:31:07.782Z,100.00
2023-03-18T05:33:38.946Z,100.00
2023-03-18T05:36:06.113Z,100.00
2023-03-18T05:38:40.792Z,100.00
2023-03-18T05:41:08.211Z,100.00
2023-03-18T05:43:38.837Z,100.00
2023-03-18T05:46:05.949Z,100.00
2023-03-18T05:48:43.542Z,100.00
2023-03-18T05:51:10.433Z,100.00
2023-03-18T05:53:39.433Z,100.00
2023-03-18T05:56:18.248Z,100.00
2023-03-18T05:58:49.930Z,100.00
2023-03-18T06:01:37.525Z,100.00
2023-03-18T06:04:06.357Z,100.00
2023-03-18T06:06:33.858Z,100.00
2023-03-18T06:09:01.073Z,100.00
2023-03-18T06:11:29.364Z,100.00
2023-03-18T06:13:56.967Z,100.00
2023-03-18T06:16:24.868Z,100.00
2023-03-18T06:18:54.388Z,100.00
2023-03-18T06:21:21.168Z,100.00
2023-03-18T06:23:48.436Z,100.00
2023-03-18T06:26:15.474Z,100.00
2023-03-18T06:28:47.920Z,100.00
2023-03-18T06:31:17.177Z,100.00
2023-03-18T06:33:43.957Z,100.00
2023-03-18T06:36:13.083Z,100.00
2023-03-18T06:38:45.817Z,100.00
2023-03-18T06:41:12.468Z,100.00
2023-03-18T06:43:50.624Z,100.00
2023-03-18T06:46:17.985Z,100.00
2023-03-18T06:48:45.707Z,100.00
2023-03-18T06:51:18.678Z,100.00
2023-03-18T06:53:45.472Z,100.00
2023-03-18T06:56:15.897Z,100.00
2023-03-18T06:59:00.854Z,100.00
2023-03-18T07:01:30.433Z,100.00
2023-03-18T07:03:59.030Z,100.00
2023-03-18T07:06:27.554Z,100.00
2023-03-18T07:08:54.777Z,100.00
2023-03-18T07:11:22.359Z,100.00
2023-03-18T07:13:49.915Z,100.00
2023-03-18T07:16:23.554Z,100.00
2023-03-18T07:18:50.375Z,100.00
2023-03-18T07:21:19.697Z,100.00
2023-03-18T07:23:47.438Z,100.00
2023-03-18T07:26:14.668Z,100.00
2023-03-18T07:28:41.855Z,100.00
2023-03-18T07:31:08.880Z,100.00
2023-03-18T07:33:35.648Z,100.00
2023-03-18T07:36:02.417Z,100.00
2023-03-18T07:38:29.739Z,100.00
2023-03-18T07:40:56.829Z,100.00
2023-03-18T07:43:23.527Z,100.00
2023-03-18T07:45:50.215Z,98.81
2023-03-18T07:48:16.975Z,94.77
2023-03-18T07:50:43.727Z,90.89
2023-03-18T07:53:10.814Z,91.14
2023-03-18T07:55:37.555Z,87.58
2023-03-18T07:58:04.881Z,87.49
2023-03-18T08:00:32.421Z,82.42
2023-03-18T08:02:59.388Z,76.25
2023-03-18T08:05:27.494Z,77.83
2023-03-18T08:07:54.583Z,81.89
2023-03-18T08:10:25.373Z,78.93
2023-03-18T08:12:54.161Z,75.63
2023-03-18T08:15:26.476Z,71.78
2023-03-18T08:17:54.154Z,72.26
2023-03-18T08:20:23.350Z,69.10
2023-03-18T08:22:50.382Z,67.28
2023-03-18T08:25:17.927Z,65.39
2023-03-18T08:27:45.767Z,64.09
2023-03-18T08:30:14.423Z,62.97
2023-03-18T08:32:43.184Z,67.11
2023-03-18T08:35:11.643Z,63.41
2023-03-18T08:37:38.945Z,63.43
2023-03-18T08:40:07.371Z,63.03
2023-03-18T08:42:34.075Z,62.26
2023-03-18T08:45:00.894Z,64.42
2023-03-18T08:47:29.484Z,56.72
2023-03-18T08:49:56.702Z,58.05
2023-03-18T08:52:23.667Z,57.18
2023-03-18T08:54:50.424Z,55.75
2023-03-18T08:57:17.262Z,51.99
2023-03-18T08:59:44.018Z,52.64
2023-03-18T09:02:17.174Z,50.38
2023-03-18T09:04:44.533Z,51.14
2023-03-18T09:07:13.182Z,50.60
2023-03-18T09:09:44.071Z,49.55
2023-03-18T09:12:12.630Z,50.92
2023-03-18T09:14:40.506Z,49.41
2023-03-18T09:17:07.659Z,48.93
2023-03-18T09:19:35.947Z,48.73
2023-03-18T09:22:02.633Z,48.77
2023-03-18T09:24:29.323Z,49.82
2023-03-18T09:26:56.070Z,46.90
2023-03-18T09:29:23.913Z,46.76
2023-03-18T09:31:50.742Z,48.53
2023-03-18T09:34:17.435Z,47.46
2023-03-18T09:36:51.019Z,44.89
2023-03-18T09:39:18.886Z,44.04
2023-03-18T09:41:56.854Z,44.01
2023-03-18T09:44:29.476Z,43.87
2023-03-18T09:46:58.903Z,44.51
2023-03-18T09:49:25.887Z,43.46
2023-03-18T09:52:10.990Z,44.12
2023-03-18T09:55:06.424Z,42.03
2023-03-18T09:57:37.340Z,41.81
2023-03-18T10:00:13.484Z,39.92
2023-03-18T10:02:45.568Z,42.85
2023-03-18T10:05:18.149Z,39.97
2023-03-18T10:07:50.106Z,38.97
2023-03-18T10:10:30.060Z,38.85
2023-03-18T10:13:13.850Z,39.37
2023-03-18T10:15:45.654Z,39.77
2023-03-18T10:18:26.567Z,38.31
2023-03-18T10:21:05.263Z,36.85
2023-03-18T10:23:47.866Z,37.70
2023-03-18T10:26:29.741Z,37.31
2023-03-18T10:29:06.098Z,37.18
2023-03-18T10:31:33.222Z,37.41
2023-03-18T10:34:02.032Z,37.62
2023-03-18T10:36:29.515Z,35.69
2023-03-18T10:38:58.401Z,37.71
2023-03-18T10:41:36.275Z,36.94
2023-03-18T10:44:23.734Z,36.61
2023-03-18T10:47:23.565Z,37.82
2023-03-18T10:50:07.574Z,37.47
2023-03-18T10:52:51.379Z,34.74
2023-03-18T10:55:22.720Z,34.75
2023-03-18T10:57:49.510Z,33.83
2023-03-18T11:00:37.448Z,34.25
2023-03-18T11:03:05.715Z,32.72
2023-03-18T11:05:36.213Z,33.48
2023-03-18T11:08:04.989Z,34.07
2023-03-18T11:10:45.789Z,33.14
2023-03-18T11:13:20.557Z,32.65
2023-03-18T11:15:51.417Z,32.48
2023-03-18T11:18:23.077Z,34.09
2023-03-18T11:21:01.425Z,34.67
2023-03-18T11:23:48.763Z,32.36
2023-03-18T11:26:29.640Z,32.32
2023-03-18T11:28:58.848Z,31.80
2023-03-18T11:31:26.022Z,31.78
2023-03-18T11:33:56.986Z,31.41
2023-03-18T11:36:24.628Z,31.06
2023-03-18T11:39:01.598Z,30.20
2023-03-18T11:41:30.154Z,31.06
2023-03-18T11:44:03.578Z,31.20
2023-03-18T11:46:36.343Z,30.02
2023-03-18T11:49:04.127Z,30.74
2023-03-18T11:52:02.980Z,29.72
2023-03-18T11:54:47.845Z,29.29
2023-03-18T11:57:50.502Z,31.51
2023-03-18T12:00:37.801Z,29.54
2023-03-18T12:03:33.038Z,31.63
2023-03-18T12:06:22.608Z,33.16
2023-03-18T12:09:17.018Z,30.95
2023-03-18T12:12:14.241Z,30.42
2023-03-18T12:14:49.818Z,31.59
2023-03-18T12:17:43.814Z,29.83
2023-03-18T12:20:28.860Z,30.24
2023-03-18T12:23:21.334Z,30.31
2023-03-18T12:26:03.988Z,29.70
2023-03-18T12:28:55.751Z,29.91
2023-03-18T12:31:30.821Z,31.33
2023-03-18T12:34:01.573Z,32.78
2023-03-18T12:37:02.276Z,32.29
2023-03-18T12:39:52.316Z,30.48
2023-03-18T12:42:39.117Z,30.45
2023-03-18T12:45:13.494Z,31.45
2023-03-18T12:47:40.560Z,31.50
2023-03-18T12:50:07.275Z,30.63
2023-03-18T12:52:47.657Z,32.37
2023-03-18T12:55:21.957Z,31.19
2023-03-18T12:58:10.356Z,32.54
2023-03-18T13:00:52.450Z,30.89
2023-03-18T13:03:26.300Z,31.15
2023-03-18T13:05:58.520Z,31.66
2023-03-18T13:08:39.425Z,31.39
2023-03-18T13:11:44.638Z,32.12
2023-03-18T13:14:59.668Z,30.11
2023-03-18T13:17:33.470Z,30.16
2023-03-18T13:20:02.317Z,30.96
2023-03-18T13:22:53.527Z,30.25
2023-03-18T13:25:37.056Z,33.26
2023-03-18T13:28:25.581Z,30.59
2023-03-18T13:31:12.476Z,30.50
2023-03-18T13:34:04.479Z,31.26
2023-03-18T13:36:51.433Z,31.98
2023-03-18T13:39:29.716Z,32.30
2023-03-18T13:42:02.647Z,32.34
2023-03-18T13:44:42.489Z,30.94
2023-03-18T13:47:17.140Z,32.23
2023-03-18T13:49:45.084Z,31.22
2023-03-18T13:52:26.209Z,31.15
2023-03-18T13:54:53.514Z,32.00
2023-03-18T13:57:29.150Z,31.87
2023-03-18T14:00:27.683Z,31.03
2023-03-18T14:03:18.650Z,31.83
2023-03-18T14:06:08.814Z,32.07
2023-03-18T14:08:38.599Z,32.23
2023-03-18T14:11:17.531Z,32.22
2023-03-18T14:14:06.046Z,30.78
2023-03-18T14:16:37.781Z,31.23
2023-03-18T14:19:40.588Z,31.84
2023-03-18T14:22:15.965Z,30.58
2023-03-18T14:24:44.663Z,32.47
2023-03-18T14:27:18.478Z,33.76
2023-03-18T14:29:47.688Z,33.37
2023-03-18T14:32:35.737Z,33.19
2023-03-18T14:35:17.645Z,33.31
2023-03-18T14:38:09.949Z,33.52
2023-03-18T14:40:41.628Z,35.01
2023-03-18T14:43:16.925Z,35.90
2023-03-18T14:45:45.907Z,36.67
2023-03-18T14:48:19.404Z,37.02
2023-03-18T14:50:53.973Z,36.87
2023-03-18T14:53:32.156Z,37.08
2023-03-18T14:55:59.264Z,37.77
2023-03-18T14:58:27.523Z,36.70
2023-03-18T15:00:58.135Z,36.77
2023-03-18T15:03:27.856Z,37.51
2023-03-18T15:05:58.317Z,38.16
2023-03-18T15:08:44.648Z,37.78
2023-03-18T15:11:15.004Z,38.39
2023-03-18T15:13:42.494Z,38.30
2023-03-18T15:16:11.983Z,38.44
2023-03-18T15:18:39.955Z,38.27
2023-03-18T15:21:21.552Z,38.43
2023-03-18T15:23:51.679Z,39.24
2023-03-18T15:26:20.126Z,39.37
2023-03-18T15:28:48.343Z,39.98
2023-03-18T15:31:32.944Z,39.22
2023-03-18T15:34:07.717Z,40.66
2023-03-18T15:36:43.429Z,39.98
2023-03-18T15:39:22.488Z,40.11
2023-03-18T15:41:54.696Z,40.19
2023-03-18T15:44:29.801Z,40.65
2023-03-18T15:47:14.387Z,40.62
2023-03-18T15:49:57.763Z,39.82
2023-03-18T15:52:30.788Z,39.78
2023-03-18T15:54:58.458Z,39.39
2023-03-18T15:57:38.868Z,38.94
2023-03-18T16:00:10.264Z,38.06
2023-03-18T16:02:39.948Z,38.00
2023-03-18T16:05:16.791Z,37.12
2023-03-18T16:07:43.586Z,37.91
2023-03-18T16:10:11.151Z,37.06
2023-03-18T16:12:39.516Z,37.08
2023-03-18T16:15:13.941Z,36.22
2023-03-18T16:17:40.682Z,34.76
2023-03-18T16:20:22.940Z,35.10
2023-03-18T16:22:50.987Z,36.11
2023-03-18T16:25:18.758Z,35.71
2023-03-18T16:27:48.522Z,35.48
2023-03-18T16:30:23.263Z,35.15
2023-03-18T16:32:51.176Z,35.63
2023-03-18T16:35:23.209Z,35.63
2023-03-18T16:37:50.456Z,35.93
2023-03-18T16:40:22.691Z,36.32
2023-03-18T16:42:49.941Z,36.17
2023-03-18T16:45:30.408Z,36.63
2023-03-18T16:48:02.132Z,37.10
2023-03-18T16:50:40.642Z,38.51
2023-03-18T16:53:20.279Z,38.62
2023-03-18T16:55:52.777Z,39.48
2023-03-18T16:58:24.897Z,40.47
2023-03-18T17:00:51.738Z,41.13
2023-03-18T17:03:19.394Z,41.84
2023-03-18T17:05:52.148Z,43.21
2023-03-18T17:08:20.839Z,43.64
2023-03-18T17:10:50.975Z,44.38
2023-03-18T17:13:24.188Z,44.73
2023-03-18T17:15:51.527Z,45.73
2023-03-18T17:18:21.310Z,46.57
2023-03-18T17:20:48.970Z,46.85
2023-03-18T17:23:24.577Z,47.26
2023-03-18T17:25:54.516Z,47.62
2023-03-18T17:28:29.229Z,50.37
2023-03-18T17:30:57.255Z,52.78
2023-03-18T17:33:33.446Z,53.84
2023-03-18T17:36:04.699Z,54.83
2023-03-18T17:38:34.896Z,55.69
2023-03-18T17:41:06.174Z,56.35
2023-03-18T17:43:36.794Z,57.20
2023-03-18T17:46:06.752Z,59.21
2023-03-18T17:48:37.391Z,60.71
2023-03-18T17:51:14.394Z,62.50
2023-03-18T17:53:48.001Z,66.36
2023-03-18T17:56:18.545Z,68.39
2023-03-18T17:58:51.662Z,73.75
2023-03-18T18:01:32.202Z,77.30
2023-03-18T18:04:02.761Z,78.03
2023-03-18T18:06:34.462Z,77.55
2023-03-18T18:09:02.377Z,77.76
2023-03-18T18:11:32.809Z,80.61
2023-03-18T18:14:10.194Z,86.25
2023-03-18T18:16:38.224Z,86.61
2023-03-18T18:19:05.793Z,91.77
2023-03-18T18:21:35.400Z,94.80
2023-03-18T18:24:03.608Z,96.87
2023-03-18T18:26:32.703Z,96.90
2023-03-18T18:28:59.684Z,93.73
2023-03-18T18:31:27.148Z,93.62
2023-03-18T18:33:56.102Z,93.19
2023-03-18T18:36:28.594Z,94.13
2023-03-18T18:38:57.476Z,96.39
2023-03-18T18:41:25.268Z,100.00
2023-03-18T18:43:55.831Z,100.00
2023-03-18T18:46:24.145Z,100.00
2023-03-18T18:48:53.800Z,100.00
2023-03-18T18:51:22.751Z,100.00
2023-03-18T18:53:52.750Z,100.00
2023-03-18T18:56:32.670Z,100.00
2023-03-18T18:59:02.062Z,100.00
2023-03-18T19:01:29.556Z,100.00
2023-03-18T19:03:56.778Z,100.00
2023-03-18T19:06:30.429Z,100.00
2023-03-18T19:09:00.045Z,100.00
2023-03-18T19:11:28.539Z,100.00
2023-03-18T19:14:17.217Z,100.00
2023-03-18T19:16:44.373Z,100.00
2023-03-18T19:19:15.063Z,100.00
2023-03-18T19:21:43.134Z,100.00
2023-03-18T19:24:30.579Z,100.00
2023-03-18T19:27:02.955Z,100.00
2023-03-18T19:29:30.744Z,100.00
2023-03-18T19:31:57.597Z,100.00
2023-03-18T19:34:24.745Z,100.00
2023-03-18T19:36:54.025Z,100.00
2023-03-18T19:39:22.500Z,100.00
2023-03-18T19:41:51.130Z,100.00
2023-03-18T19:44:22.889Z,100.00
2023-03-18T19:46:52.986Z,100.00
2023-03-18T19:49:27.138Z,100.00
2023-03-18T19:51:55.087Z,100.00
2023-03-18T19:54:37.250Z,100.00
2023-03-18T19:57:12.312Z,100.00
2023-03-18T19:59:39.970Z,100.00
2023-03-18T20:02:33.059Z,100.00
2023-03-18T20:05:02.445Z,100.00
2023-03-18T20:07:31.549Z,100.00
2023-03-18T20:09:58.629Z,100.00
2023-03-18T20:12:26.500Z,100.00
2023-03-18T20:14:53.232Z,100.00
2023-03-18T20:17:30.500Z,100.00
2023-03-18T20:19:57.786Z,100.00
2023-03-18T20:22:32.451Z,100.00
2023-03-18T20:25:00.577Z,100.00
2023-03-18T20:27:27.368Z,100.00
2023-03-18T20:29:54.108Z,100.00
2023-03-18T20:32:21.140Z,100.00
2023-03-18T20:34:48.452Z,100.00
2023-03-18T20:37:36.223Z,100.00
2023-03-18T20:40:05.471Z,100.00
2023-03-18T20:42:32.232Z,100.00
2023-03-18T20:44:58.947Z,100.00
2023-03-18T20:47:25.696Z,100.00
2023-03-18T20:49:53.978Z,100.00
2023-03-18T20:52:27.592Z,100.00
2023-03-18T20:54:56.710Z,100.00
2023-03-18T20:57:24.214Z,100.00
2023-03-18T20:59:51.638Z,100.00
2023-03-18T21:02:28.495Z,100.00
2023-03-18T21:04:56.799Z,100.00
2023-03-18T21:07:24.258Z,100.00
2023-03-18T21:09:52.000Z,100.00
2023-03-18T21:12:20.790Z,100.00
2023-03-18T21:14:48.641Z,100.00
2023-03-18T21:17:27.256Z,100.00
2023-03-18T21:20:11.110Z,100.00
2023-03-18T21:22:47.243Z,100.00
2023-03-18T21:25:25.922Z,100.00
2023-03-18T21:27:53.659Z,100.00
2023-03-18T21:30:22.370Z,100.00
2023-03-18T21:32:50.650Z,100.00
2023-03-18T21:35:20.776Z,100.00
2023-03-18T21:37:47.554Z,100.00
2023-03-18T21:40:19.662Z,100.00
2023-03-18T21:42:46.592Z,100.00
2023-03-18T21:45:15.453Z,100.00
2023-03-18T21:47:42.196Z,100.00
2023-03-18T21:50:22.380Z,100.00
2023-03-18T21:52:49.305Z,100.00
2023-03-18T21:55:16.470Z,100.00
2023-03-18T21:57:43.475Z,100.00
2023-03-18T22:00:20.101Z,100.00
2023-03-18T22:02:47.758Z,100.00
2023-03-18T22:05:19.508Z,100.00
2023-03-18T22:07:46.877Z,100.00
2023-03-18T22:10:21.223Z,100.00
2023-03-18T22:12:48.219Z,100.00
2023-03-18T22:15:23.885Z,100.00
2023-03-18T22:17:51.866Z,100.00
2023-03-18T22:20:18.901Z,100.00
2023-03-18T22:22:45.675Z,100.00
2023-03-18T22:25:31.280Z,100.00
2023-03-18T22:27:58.741Z,100.00
2023-03-18T22:30:30.846Z,100.00
2023-03-18T22:32:58.923Z,100.00
2023-03-18T22:35:27.701Z,100.00
2023-03-18T22:37:55.431Z,100.00
2023-03-18T22:40:29.992Z,100.00
2023-03-18T22:42:59.731Z,100.00
2023-03-18T22:45:33.994Z,100.00
2023-03-18T22:48:04.411Z,100.00
2023-03-18T22:50:34.614Z,100.00
2023-03-18T22:53:06.825Z,100.00
2023-03-18T22:55:38.876Z,100.00
2023-03-18T22:58:07.715Z,100.00
2023-03-18T23:00:37.427Z,100.00
2023-03-18T23:03:12.205Z,100.00
2023-03-18T23:05:39.023Z,100.00
2023-03-18T23:08:06.194Z,100.00
2023-03-18T23:10:33.210Z,100.00
2023-03-18T23:13:00.048Z,100.00
2023-03-18T23:15:26.766Z,100.00
2023-03-18T23:17:53.457Z,100.00
2023-03-18T23:20:20.278Z,100.00
2023-03-18T23:22:47.027Z,100.00
2023-03-18T23:25:17.707Z,100.00
2023-03-18T23:27:45.515Z,100.00
2023-03-18T23:30:14.714Z,100.00
2023-03-18T23:32:41.863Z,100.00
2023-03-18T23:35:09.391Z,100.00
2023-03-18T23:37:36.550Z,100.00
2023-03-18T23:40:03.986Z,100.00
2023-03-18T23:42:30.570Z,100.00
2023-03-18T23:44:57.298Z,100.00
2023-03-18T23:47:24.062Z,100.00
2023-03-18T23:49:51.119Z,100.00
2023-03-18T23:52:17.847Z,100.00
2023-03-18T23:54:44.657Z,100.00
2023-03-18T23:57:11.786Z,100.00
2023-03-18T23:59:38.743Z,100.00
